Clear Sky Current Weather (METAR) For Antalya Airport

All times on the weather descriptions are local

Observed at 06:20 - (34 mins ago)

Clear Sky

21°C

Clear Sky
Clouds:
Wind: 290° at 06 knots, varying from 260° to 320
Visibility: Greater than 10km
QNH: 1014
Dew Point: 9°C
Runway in Use: Likely Runways 36L/C/R

Sunrise Today: 06:42
Sunset Today: 18:58

Forecast Weather (TAF) For Antalya Airport

Issued at 03:00 - (9 days 20 hrs ago)


Runway in Use: Unable to determine, wind is clam

Forecast valid until 03:00 on Tuesday

METAR/TAF RAW METAR / TAF

LTAI 200320Z 29006KT 260V320 CAVOK 21/09 Q1014 NOSIG RMK RWY18C 32011KT RWY36R 29008KT RWY18L 31011KT

Weather Widget

Put weather from any of our airports on your website with our weather widget.

Find Another Search

Airport Search


Please Wait Please Wait - Loading
Close
Close

Login

Username:

Password:

Remember Me:

Remember me on this computer

Forgotten your password? Get a reset password sent to your registered e-mail address

Close

User Private Message

Subject:

Message: